Pineville, North Carolina
Current Conditions -  °F | °C
As of 12:52 PM on Friday 28 Nov 2014 (Local Time) from KCLT Reporting Station
Few Clouds Few Clouds  
Wind Chill: 42°   Ceiling: Unl
Heat Index: 44°   Visibility: 10mi
Dew Point: 15°   Wind: 5mph
Humidity: 31%   Direction: 340°NNW
Pressure: 30.33"   Gusts: NA
Location:  35.08°N, 80.89°W
Report Text: KCLT 281752Z 34004KT 10SM FEW250 07/M09 A3033 RMK AO2 SLP273 T00671094 10067 21028 58017
Loading
Personal Weather Stations






























Interactive Weather Map New forecast layout! Learn more

10-Day Weather Forecast

Advertisements
Track Severe Weather on mobile